Time;durP1;ratioP1;P1;durP2;ratioP2;P2;SDS_P1;SDS_P2;PMS_P1;PMS_P2;Temp;Humidity;BMP_temperature;BMP_pressure;BME280_temperature;BME280_humidity;BME280_pressure;Samples;Min_cycle;Max_cycle;Signal;HPM_P1;HPM_P2
2023/05/27 00:00:53;;;;;;;12.90;5.97;;;;;;;;;;4992779;28;20896;-60
2023/05/27 00:03:19;;;;;;;20.70;6.77;;;;;;;;;;4992599;28;20424;-60
2023/05/27 00:05:45;;;;;;;21.30;5.97;;;;;;;;;;4991394;28;20454;-60
2023/05/27 00:08:12;;;;;;;16.50;6.23;;;;;;;;;;4992478;28;20779;-60
2023/05/27 00:10:38;;;;;;;14.97;6.30;;;;;;;;;;4992562;28;20932;-60
2023/05/27 00:13:04;;;;;;;16.73;7.00;;;;;;;;;;4992466;28;20457;-60
2023/05/27 00:15:30;;;;;;;18.77;6.27;;;;;;;;;;4993904;28;20913;-60
2023/05/27 00:17:59;;;;;;;23.20;7.33;;;;;;;;;;4999220;28;20397;-60
2023/05/27 00:20:25;;;;;;;17.90;6.33;;;;;;;;;;4999118;28;20904;-60
2023/05/27 00:22:51;;;;;;;20.50;6.67;;;;;;;;;;4999229;28;20749;-60
2023/05/27 00:25:21;;;;;;;20.20;6.57;;;;;;;;;;4999605;28;20519;-60
2023/05/27 00:27:47;;;;;;;20.47;5.80;;;;;;;;;;4999088;28;20986;-60
2023/05/27 00:30:13;;;;;;;15.43;5.97;;;;;;;;;;4999048;28;20474;-60
2023/05/27 00:32:39;;;;;;;13.03;6.33;;;;;;;;;;4998922;28;20679;-60
2023/05/27 00:35:06;;;;;;;13.67;6.80;;;;;;;;;;4999010;28;20425;-60
2023/05/27 00:37:32;;;;;;;15.60;6.80;;;;;;;;;;4999076;28;20979;-60
2023/05/27 00:39:58;;;;;;;22.97;6.90;;;;;;;;;;4997649;28;20449;-60
2023/05/27 00:42:24;;;;;;;27.87;6.70;;;;;;;;;;4998780;28;20893;-60
2023/05/27 00:44:50;;;;;;;17.07;6.50;;;;;;;;;;4998905;28;20448;-60
2023/05/27 00:47:16;;;;;;;19.00;7.00;;;;;;;;;;4998246;28;20839;-60
2023/05/27 00:49:43;;;;;;;16.63;6.03;;;;;;;;;;4998927;28;20456;-60
2023/05/27 00:52:09;;;;;;;23.63;7.40;;;;;;;;;;4998841;28;20476;-61
2023/05/27 00:54:35;;;;;;;18.63;7.13;;;;;;;;;;4998879;28;20920;-60
2023/05/27 00:57:02;;;;;;;19.00;6.57;;;;;;;;;;4998519;28;20409;-59
2023/05/27 00:59:28;;;;;;;18.80;6.10;;;;;;;;;;4997950;28;20420;-60
2023/05/27 01:01:54;;;;;;;12.80;6.73;;;;;;;;;;4997988;28;20437;-59
2023/05/27 01:04:20;;;;;;;16.23;6.50;;;;;;;;;;4998684;28;20435;-60
2023/05/27 01:07:02;;;;;;;21.90;6.23;;;;;;;;;;4998700;28;20450;-60
2023/05/27 01:09:31;;;;;;;17.33;6.10;;;;;;;;;;4998730;28;20419;-60
2023/05/27 01:12:09;;;;;;;17.20;6.70;;;;;;;;;;4998287;28;20490;-60
2023/05/27 01:14:37;;;;;;;17.50;6.73;;;;;;;;;;4998603;28;20455;-60
2023/05/27 01:17:06;;;;;;;20.00;7.50;;;;;;;;;;4998519;28;20437;-60
2023/05/27 01:19:37;;;;;;;16.00;6.73;;;;;;;;;;4998612;28;20428;-60
2023/05/27 01:22:07;;;;;;;17.20;6.60;;;;;;;;;;4998478;28;20425;-60
2023/05/27 01:24:33;;;;;;;15.30;6.60;;;;;;;;;;4997259;28;20424;-60
2023/05/27 01:27:01;;;;;;;17.57;7.10;;;;;;;;;;4997465;28;20416;-60
2023/05/27 01:29:28;;;;;;;14.20;6.60;;;;;;;;;;4995216;28;20990;-60
2023/05/27 01:32:03;;;;;;;22.87;6.93;;;;;;;;;;4995864;28;20478;-60
2023/05/27 01:34:36;;;;;;;13.47;6.90;;;;;;;;;;4995692;28;20436;-59
2023/05/27 01:37:05;;;;;;;15.80;7.70;;;;;;;;;;4995450;28;20895;-59
2023/05/27 01:39:32;;;;;;;24.43;7.17;;;;;;;;;;4995396;28;20448;-60
2023/05/27 01:42:07;;;;;;;18.00;7.03;;;;;;;;;;4995363;28;20954;-60
2023/05/27 01:44:33;;;;;;;18.23;7.20;;;;;;;;;;4995228;28;20420;-59
2023/05/27 01:47:00;;;;;;;19.23;6.57;;;;;;;;;;4995265;28;20503;-60
2023/05/27 01:49:26;;;;;;;26.70;7.17;;;;;;;;;;4995189;28;20421;-60
2023/05/27 01:51:52;;;;;;;16.70;6.70;;;;;;;;;;4994868;28;20506;-60
2023/05/27 01:54:21;;;;;;;22.30;7.40;;;;;;;;;;4995171;28;20434;-60
2023/05/27 01:56:47;;;;;;;19.70;6.87;;;;;;;;;;4994994;28;20832;-60
2023/05/27 01:59:12;;;;;;;32.67;8.23;;;;;;;;;;4994876;28;20491;-60
2023/05/27 02:01:38;;;;;;;21.17;6.80;;;;;;;;;;4994989;28;20439;-59
2023/05/27 02:04:07;;;;;;;15.03;6.37;;;;;;;;;;4994905;28;20442;-60
2023/05/27 02:06:33;;;;;;;15.43;6.57;;;;;;;;;;4993529;28;20840;-59
2023/05/27 02:09:00;;;;;;;16.73;7.50;;;;;;;;;;4994987;28;20403;-60
2023/05/27 02:11:28;;;;;;;13.60;7.57;;;;;;;;;;4994984;28;20897;-59
2023/05/27 02:13:55;;;;;;;15.53;7.20;;;;;;;;;;4994612;28;20527;-60
2023/05/27 02:16:21;;;;;;;19.10;6.73;;;;;;;;;;4994781;28;20450;-60
2023/05/27 02:18:51;;;;;;;20.07;6.93;;;;;;;;;;4994558;28;20855;-60
2023/05/27 02:21:17;;;;;;;16.83;6.90;;;;;;;;;;4994258;28;20421;-59
2023/05/27 02:23:43;;;;;;;14.90;6.93;;;;;;;;;;4993195;28;20434;-60
2023/05/27 02:26:09;;;;;;;12.53;6.73;;;;;;;;;;4994560;28;20411;-60
2023/05/27 02:28:35;;;;;;;15.20;7.30;;;;;;;;;;4994531;28;20432;-60
2023/05/27 02:31:03;;;;;;;15.93;6.90;;;;;;;;;;4994275;28;20418;-60
2023/05/27 02:33:30;;;;;;;18.30;7.00;;;;;;;;;;4992904;28;20903;-60
2023/05/27 02:35:56;;;;;;;17.00;7.00;;;;;;;;;;4994302;28;20446;-60
2023/05/27 02:38:22;;;;;;;24.23;7.50;;;;;;;;;;4993879;28;20457;-60
2023/05/27 02:40:51;;;;;;;17.10;6.83;;;;;;;;;;4994304;28;20467;-60
2023/05/27 02:43:17;;;;;;;21.00;7.00;;;;;;;;;;4993979;28;20925;-60
2023/05/27 02:45:43;;;;;;;17.87;7.13;;;;;;;;;;4993763;28;20419;-59
2023/05/27 02:48:09;;;;;;;24.43;7.60;;;;;;;;;;4993976;28;20407;-60
2023/05/27 02:50:35;;;;;;;18.70;6.60;;;;;;;;;;4993930;28;20787;-59
2023/05/27 02:53:01;;;;;;;12.03;6.70;;;;;;;;;;4993925;28;20498;-60
2023/05/27 02:55:27;;;;;;;21.20;7.93;;;;;;;;;;4993922;28;20445;-59
2023/05/27 02:57:53;;;;;;;17.63;6.50;;;;;;;;;;4993972;28;20443;-60
2023/05/27 03:00:19;;;;;;;21.30;6.57;;;;;;;;;;4993974;28;20908;-60
2023/05/27 03:02:45;;;;;;;15.97;6.60;;;;;;;;;;4993675;28;20525;-60
2023/05/27 03:05:11;;;;;;;19.43;7.47;;;;;;;;;;4994034;28;20793;-59
2023/05/27 03:07:40;;;;;;;21.50;7.10;;;;;;;;;;4994066;28;20541;-59
2023/05/27 03:10:08;;;;;;;19.20;7.13;;;;;;;;;;4993836;28;20939;-59
2023/05/27 03:12:35;;;;;;;18.77;7.60;;;;;;;;;;4993497;28;21038;-59
2023/05/27 03:15:00;;;;;;;14.90;6.60;;;;;;;;;;4993970;28;20808;-60
2023/05/27 03:17:27;;;;;;;13.20;6.70;;;;;;;;;;4993580;28;20486;-59
2023/05/27 03:19:53;;;;;;;15.50;7.17;;;;;;;;;;4993498;28;20466;-59
2023/05/27 03:22:19;;;;;;;22.17;6.93;;;;;;;;;;4993890;28;20449;-60
2023/05/27 03:24:45;;;;;;;23.50;7.70;;;;;;;;;;4993428;28;20421;-59
2023/05/27 03:27:11;;;;;;;16.30;6.70;;;;;;;;;;4993425;28;20415;-59
2023/05/27 03:29:37;;;;;;;25.30;6.47;;;;;;;;;;4992178;28;20422;-59
2023/05/27 03:32:03;;;;;;;17.20;7.13;;;;;;;;;;4993018;28;20853;-59
2023/05/27 03:34:29;;;;;;;19.53;7.60;;;;;;;;;;4993130;28;20518;-59
2023/05/27 03:36:55;;;;;;;14.63;7.00;;;;;;;;;;4993565;28;20868;-59
2023/05/27 03:39:21;;;;;;;15.17;7.30;;;;;;;;;;4993609;28;20469;-59
2023/05/27 03:41:47;;;;;;;21.30;7.50;;;;;;;;;;4992921;28;20912;-59
2023/05/27 03:44:13;;;;;;;10.10;6.47;;;;;;;;;;4993291;28;20435;-59
2023/05/27 03:46:41;;;;;;;19.23;7.30;;;;;;;;;;4991853;28;20465;-60
2023/05/27 03:49:10;;;;;;;16.10;7.00;;;;;;;;;;4993171;28;20492;-60
2023/05/27 03:51:36;;;;;;;14.10;6.20;;;;;;;;;;4992352;28;20954;-59
2023/05/27 03:54:04;;;;;;;20.73;6.07;;;;;;;;;;4992862;28;20438;-59
2023/05/27 03:56:32;;;;;;;13.77;6.43;;;;;;;;;;4993051;28;20590;-59
2023/05/27 03:58:58;;;;;;;16.97;6.60;;;;;;;;;;4992887;28;20475;-60
2023/05/27 04:01:24;;;;;;;11.90;7.20;;;;;;;;;;4992928;28;20473;-60
2023/05/27 04:03:53;;;;;;;22.13;6.77;;;;;;;;;;4993145;28;20412;-60
2023/05/27 04:06:19;;;;;;;18.23;6.73;;;;;;;;;;4992957;28;20800;-59
2023/05/27 04:08:45;;;;;;;25.10;8.10;;;;;;;;;;4992866;28;20418;-59
2023/05/27 04:11:12;;;;;;;17.97;7.13;;;;;;;;;;4992819;28;20421;-59
2023/05/27 04:13:38;;;;;;;14.73;6.33;;;;;;;;;;4992926;28;20415;-60
2023/05/27 04:16:04;;;;;;;13.70;6.43;;;;;;;;;;4992626;28;20438;-60
2023/05/27 04:18:30;;;;;;;20.17;6.33;;;;;;;;;;4992322;28;20495;-60
2023/05/27 04:20:58;;;;;;;20.80;7.43;;;;;;;;;;4992490;28;20462;-60
2023/05/27 04:23:24;;;;;;;14.90;6.90;;;;;;;;;;4992777;28;20409;-60
2023/05/27 04:25:51;;;;;;;14.93;6.00;;;;;;;;;;4992542;28;20444;-60
2023/05/27 04:28:17;;;;;;;19.13;6.90;;;;;;;;;;4992795;28;20768;-58
2023/05/27 04:30:43;;;;;;;16.57;5.90;;;;;;;;;;4992751;28;20417;-60
2023/05/27 04:33:11;;;;;;;15.13;5.90;;;;;;;;;;4992498;28;21029;-60
2023/05/27 04:35:37;;;;;;;13.77;6.37;;;;;;;;;;4992648;28;20779;-59
2023/05/27 04:38:07;;;;;;;19.33;6.93;;;;;;;;;;4992635;28;20426;-60
2023/05/27 04:40:34;;;;;;;14.00;7.07;;;;;;;;;;4992677;28;20425;-58
2023/05/27 04:43:00;;;;;;;12.17;5.80;;;;;;;;;;4991452;28;20546;-61
2023/05/27 04:45:26;;;;;;;8.00;5.83;;;;;;;;;;4992862;28;20803;-61
2023/05/27 04:47:52;;;;;;;28.13;6.33;;;;;;;;;;4992814;28;20441;-61
2023/05/27 04:50:18;;;;;;;13.90;5.80;;;;;;;;;;4992746;28;20431;-61
2023/05/27 04:52:44;;;;;;;51.30;30.00;;;;;;;;;;4991219;28;20473;-61
2023/05/27 04:55:11;;;;;;;15.73;11.03;;;;;;;;;;4992511;28;20580;-61
2023/05/27 04:57:40;;;;;;;14.97;6.50;;;;;;;;;;4991422;28;20835;-61
2023/05/27 05:02:39;;;;;;;16.60;6.40;;;;;;;;;;4993035;28;20414;-61
2023/05/27 05:05:06;;;;;;;15.40;6.43;;;;;;;;;;4996240;28;20835;-61
2023/05/27 05:07:33;;;;;;;14.00;5.90;;;;;;;;;;4996217;28;20444;-61
2023/05/27 05:09:59;;;;;;;18.57;6.23;;;;;;;;;;4996143;28;20480;-61
2023/05/27 05:12:26;;;;;;;10.87;5.10;;;;;;;;;;4994797;28;20473;-61
2023/05/27 05:14:52;;;;;;;20.60;6.70;;;;;;;;;;4995981;28;20442;-61
2023/05/27 05:17:19;;;;;;;14.23;6.03;;;;;;;;;;4995963;28;20435;-61
2023/05/27 05:19:45;;;;;;;16.73;6.70;;;;;;;;;;4996011;28;20777;-61
2023/05/27 05:22:18;;;;;;;13.30;6.63;;;;;;;;;;4994734;28;20444;-61
2023/05/27 05:24:44;;;;;;;20.57;6.00;;;;;;;;;;4994765;28;20430;-61
2023/05/27 05:27:12;;;;;;;14.77;5.93;;;;;;;;;;4995824;28;20972;-61
2023/05/27 05:29:38;;;;;;;17.57;5.73;;;;;;;;;;4995707;28;20857;-61
2023/05/27 05:32:07;;;;;;;15.23;6.90;;;;;;;;;;4995552;28;20554;-61
2023/05/27 05:34:33;;;;;;;13.83;6.20;;;;;;;;;;4995654;28;20438;-61
2023/05/27 05:37:01;;;;;;;11.57;6.47;;;;;;;;;;4995725;28;20447;-61
2023/05/27 05:39:27;;;;;;;12.67;5.50;;;;;;;;;;4995541;28;20443;-61
2023/05/27 05:41:53;;;;;;;12.30;5.33;;;;;;;;;;4995538;28;20429;-61
2023/05/27 05:44:19;;;;;;;12.00;5.90;;;;;;;;;;4995683;28;20451;-61
2023/05/27 05:46:45;;;;;;;16.70;5.17;;;;;;;;;;4995560;28;20406;-61
2023/05/27 05:49:11;;;;;;;11.67;5.40;;;;;;;;;;4995559;28;20434;-61
2023/05/27 05:51:37;;;;;;;12.30;4.90;;;;;;;;;;4995229;28;20485;-61
2023/05/27 05:54:03;;;;;;;16.20;5.70;;;;;;;;;;4995272;28;20866;-61
2023/05/27 05:56:32;;;;;;;22.00;6.40;;;;;;;;;;4995196;28;20434;-61
2023/05/27 05:59:00;;;;;;;17.47;5.40;;;;;;;;;;4995159;28;20431;-61
2023/05/27 06:01:29;;;;;;;14.87;6.03;;;;;;;;;;4994879;28;20442;-61
2023/05/27 06:03:59;;;;;;;13.40;5.33;;;;;;;;;;4995008;28;20881;-61
2023/05/27 06:06:27;;;;;;;13.13;5.77;;;;;;;;;;4994673;28;20511;-61
2023/05/27 06:08:53;;;;;;;14.73;5.67;;;;;;;;;;4994745;28;20412;-61
2023/05/27 06:11:19;;;;;;;13.60;6.43;;;;;;;;;;4994681;28;20420;-61
2023/05/27 06:13:45;;;;;;;17.43;7.10;;;;;;;;;;4994237;28;20427;-61
2023/05/27 06:16:11;;;;;;;12.60;6.57;;;;;;;;;;4994748;28;20423;-61
2023/05/27 06:18:37;;;;;;;13.17;5.60;;;;;;;;;;4994500;28;20894;-60
2023/05/27 06:21:03;;;;;;;12.80;5.60;;;;;;;;;;4994639;28;20501;-61
2023/05/27 06:23:29;;;;;;;17.80;5.63;;;;;;;;;;4994212;28;20490;-62
2023/05/27 06:25:55;;;;;;;14.63;4.90;;;;;;;;;;4994592;28;20420;-62
2023/05/27 06:28:21;;;;;;;14.90;5.67;;;;;;;;;;4994368;28;20417;-61
2023/05/27 06:30:47;;;;;;;13.57;5.63;;;;;;;;;;4994434;28;20831;-61
2023/05/27 06:33:13;;;;;;;10.40;5.53;;;;;;;;;;4994239;28;20471;-62
2023/05/27 06:35:39;;;;;;;10.93;5.10;;;;;;;;;;4994093;28;20939;-62
2023/05/27 06:38:05;;;;;;;22.60;6.20;;;;;;;;;;4994309;28;20451;-62
2023/05/27 06:40:34;;;;;;;12.67;6.10;;;;;;;;;;4994208;28;20441;-61
2023/05/27 06:43:00;;;;;;;19.53;6.43;;;;;;;;;;4994500;28;20454;-62
2023/05/27 06:45:28;;;;;;;17.40;5.77;;;;;;;;;;4993881;28;20950;-61
2023/05/27 06:47:56;;;;;;;18.33;5.73;;;;;;;;;;4993353;28;20428;-62
2023/05/27 06:50:22;;;;;;;15.07;6.13;;;;;;;;;;4993761;28;20443;-61
2023/05/27 06:52:50;;;;;;;15.03;7.10;;;;;;;;;;4993858;28;20966;-62
2023/05/27 06:55:18;;;;;;;13.87;5.70;;;;;;;;;;4992631;28;20515;-61
2023/05/27 06:57:44;;;;;;;17.47;6.07;;;;;;;;;;4994317;28;20441;-63
2023/05/27 07:00:10;;;;;;;12.17;5.90;;;;;;;;;;4993870;28;20492;-60
2023/05/27 07:02:36;;;;;;;21.57;5.83;;;;;;;;;;4993663;28;20919;-60
2023/05/27 07:05:02;;;;;;;15.83;5.90;;;;;;;;;;4993773;28;20509;-60
2023/05/27 07:07:28;;;;;;;12.90;6.87;;;;;;;;;;4993722;28;20448;-60
2023/05/27 07:09:54;;;;;;;15.73;6.50;;;;;;;;;;4994182;28;20966;-60
2023/05/27 07:12:20;;;;;;;13.70;6.10;;;;;;;;;;4993681;28;20499;-60
2023/05/27 07:14:49;;;;;;;18.60;6.50;;;;;;;;;;4994027;28;20420;-60
2023/05/27 07:17:15;;;;;;;14.43;6.17;;;;;;;;;;4994040;28;20400;-61
2023/05/27 07:19:41;;;;;;;17.77;7.33;;;;;;;;;;4993706;28;20495;-61
2023/05/27 07:22:07;;;;;;;19.67;9.40;;;;;;;;;;4993264;28;20765;-61
2023/05/27 07:24:33;;;;;;;15.90;6.40;;;;;;;;;;4993301;28;20420;-60
2023/05/27 07:26:59;;;;;;;22.33;6.07;;;;;;;;;;4993198;28;20414;-60
2023/05/27 07:29:25;;;;;;;15.67;5.93;;;;;;;;;;4993708;28;20495;-61
2023/05/27 07:31:51;;;;;;;13.40;5.63;;;;;;;;;;4993184;28;20491;-60
2023/05/27 07:34:17;;;;;;;9.53;5.57;;;;;;;;;;4993768;28;20931;-61
2023/05/27 07:36:43;;;;;;;21.10;6.30;;;;;;;;;;4993549;28;20457;-60
2023/05/27 07:39:12;;;;;;;13.47;5.57;;;;;;;;;;4993519;28;20419;-60
2023/05/27 07:41:38;;;;;;;17.80;6.77;;;;;;;;;;4993296;28;20824;-60
2023/05/27 07:44:04;;;;;;;11.70;6.17;;;;;;;;;;4993166;28;20477;-60
2023/05/27 07:46:30;;;;;;;10.60;6.30;;;;;;;;;;4992675;28;20418;-60
2023/05/27 07:48:56;;;;;;;11.13;6.10;;;;;;;;;;4992237;28;20921;-60
2023/05/27 07:51:22;;;;;;;11.20;6.40;;;;;;;;;;4993198;28;20414;-60
2023/05/27 07:53:50;;;;;;;15.97;6.60;;;;;;;;;;4993387;28;20960;-61
2023/05/27 07:56:16;;;;;;;15.80;6.10;;;;;;;;;;4993337;28;20409;-60
2023/05/27 07:58:42;;;;;;;10.00;5.67;;;;;;;;;;4992898;28;20447;-60
2023/05/27 08:01:08;;;;;;;16.60;6.20;;;;;;;;;;4992622;28;20427;-61
2023/05/27 08:03:35;;;;;;;12.53;6.07;;;;;;;;;;4993031;28;20518;-60
2023/05/27 08:06:01;;;;;;;8.57;5.40;;;;;;;;;;4991842;28;20435;-60
2023/05/27 08:08:27;;;;;;;16.33;5.67;;;;;;;;;;4992916;28;20457;-60
2023/05/27 08:10:53;;;;;;;20.40;6.40;;;;;;;;;;4992929;28;20471;-60
2023/05/27 08:13:19;;;;;;;21.40;6.33;;;;;;;;;;4991934;28;20962;-61
2023/05/27 08:15:46;;;;;;;15.60;5.43;;;;;;;;;;4992886;28;20420;-60
2023/05/27 08:18:13;;;;;;;7.33;5.00;;;;;;;;;;4991776;28;20493;-60
2023/05/27 08:20:38;;;;;;;16.13;5.80;;;;;;;;;;4993217;28;20926;-61
2023/05/27 08:23:05;;;;;;;12.20;5.73;;;;;;;;;;4993155;28;20523;-61
2023/05/27 08:25:33;;;;;;;26.87;6.07;;;;;;;;;;4993050;28;20420;-60
2023/05/27 08:28:02;;;;;;;12.70;6.03;;;;;;;;;;4993109;28;20942;-61
2023/05/27 08:30:31;;;;;;;13.00;5.70;;;;;;;;;;4993405;28;20439;-60
2023/05/27 08:32:57;;;;;;;17.07;5.90;;;;;;;;;;4992856;28;20511;-61
2023/05/27 08:35:24;;;;;;;10.63;6.00;;;;;;;;;;4993076;28;20470;-61
2023/05/27 08:37:50;;;;;;;14.27;5.83;;;;;;;;;;4995542;28;20431;-60
2023/05/27 08:40:19;;;;;;;18.60;6.40;;;;;;;;;;4996911;28;20420;-60
2023/05/27 08:42:47;;;;;;;9.83;6.00;;;;;;;;;;4996596;28;20818;-61
2023/05/27 08:45:15;;;;;;;10.80;5.40;;;;;;;;;;4996909;28;20419;-60
2023/05/27 08:47:41;;;;;;;12.87;6.03;;;;;;;;;;4996586;28;20448;-61
2023/05/27 08:50:08;;;;;;;10.67;6.10;;;;;;;;;;4996782;28;20417;-61
2023/05/27 08:52:37;;;;;;;9.40;5.03;;;;;;;;;;4995139;28;20476;-60
2023/05/27 08:55:03;;;;;;;12.27;6.10;;;;;;;;;;4996347;28;20877;-60
2023/05/27 08:57:35;;;;;;;13.17;5.87;;;;;;;;;;4996069;28;20540;-61
2023/05/27 09:00:11;;;;;;;16.27;6.23;;;;;;;;;;4995958;28;20416;-61
2023/05/27 09:02:37;;;;;;;17.63;6.40;;;;;;;;;;4996171;28;20435;-63
2023/05/27 09:05:03;;;;;;;11.90;5.77;;;;;;;;;;4994663;28;20508;-62
2023/05/27 09:07:29;;;;;;;14.47;6.40;;;;;;;;;;4994595;28;20431;-62
2023/05/27 09:09:56;;;;;;;14.53;6.47;;;;;;;;;;4995593;28;20489;-61
2023/05/27 09:12:23;;;;;;;21.23;6.43;;;;;;;;;;4996316;28;20557;-62
2023/05/27 09:14:50;;;;;;;10.17;5.70;;;;;;;;;;4995965;28;20410;-62
2023/05/27 09:17:18;;;;;;;8.97;5.63;;;;;;;;;;4995763;28;20415;-62
2023/05/27 09:19:47;;;;;;;15.33;6.27;;;;;;;;;;4995608;28;20467;-62
2023/05/27 09:22:22;;;;;;;17.20;6.57;;;;;;;;;;4995526;28;20437;-61
2023/05/27 09:24:49;;;;;;;13.50;5.90;;;;;;;;;;4995234;28;20492;-63
2023/05/27 09:27:17;;;;;;;10.43;5.63;;;;;;;;;;4995079;28;20485;-62
2023/05/27 09:29:44;;;;;;;15.10;6.13;;;;;;;;;;4995613;28;20408;-61
2023/05/27 09:32:12;;;;;;;22.33;6.13;;;;;;;;;;4995920;28;20460;-60
2023/05/27 09:34:38;;;;;;;11.90;5.70;;;;;;;;;;4995346;28;20533;-60
2023/05/27 09:37:05;;;;;;;12.80;5.87;;;;;;;;;;4993927;28;20424;-60
2023/05/27 09:39:35;;;;;;;15.93;5.90;;;;;;;;;;5006741;28;20801;-60
2023/05/27 09:42:01;;;;;;;9.77;5.70;;;;;;;;;;5014770;28;20431;-60
2023/05/27 09:44:29;;;;;;;18.57;5.70;;;;;;;;;;4997311;28;20470;-60
2023/05/27 09:46:59;;;;;;;16.27;6.27;;;;;;;;;;4995656;28;20451;-62
2023/05/27 09:49:27;;;;;;;18.43;6.67;;;;;;;;;;5011158;28;20454;-60
2023/05/27 09:51:57;;;;;;;12.03;5.80;;;;;;;;;;5014885;28;20998;-62
2023/05/27 09:54:23;;;;;;;16.97;5.80;;;;;;;;;;5014973;28;20419;-61
2023/05/27 09:56:50;;;;;;;15.13;5.90;;;;;;;;;;5015102;28;20415;-61
2023/05/27 09:59:18;;;;;;;13.40;6.27;;;;;;;;;;5014975;28;20447;-61
2023/05/27 10:01:47;;;;;;;9.60;5.53;;;;;;;;;;5014833;28;20498;-61
2023/05/27 10:04:15;;;;;;;15.10;6.47;;;;;;;;;;5014623;28;20506;-61
2023/05/27 10:06:41;;;;;;;12.20;5.80;;;;;;;;;;5015532;28;20875;-61
2023/05/27 10:09:07;;;;;;;8.13;5.80;;;;;;;;;;5015851;28;20475;-61
2023/05/27 10:11:38;;;;;;;13.70;5.70;;;;;;;;;;5015317;28;20420;-61
2023/05/27 10:14:05;;;;;;;9.93;5.57;;;;;;;;;;5016008;28;20425;-61
2023/05/27 10:16:33;;;;;;;20.27;5.77;;;;;;;;;;5016611;28;20965;-61
2023/05/27 10:18:59;;;;;;;12.90;5.93;;;;;;;;;;5021280;28;20524;-61
2023/05/27 10:21:30;;;;;;;15.83;6.40;;;;;;;;;;5030453;28;20398;-61
2023/05/27 10:24:00;;;;;;;15.23;5.80;;;;;;;;;;5037982;28;20420;-61
2023/05/27 10:26:33;;;;;;;15.17;6.37;;;;;;;;;;5038905;28;20527;-61
2023/05/27 10:29:06;;;;;;;10.87;6.10;;;;;;;;;;5037903;28;20418;-61
2023/05/27 10:31:32;;;;;;;19.07;5.93;;;;;;;;;;5017273;28;20432;-61
2023/05/27 10:33:58;;;;;;;14.57;5.67;;;;;;;;;;5018396;28;20477;-61
2023/05/27 10:36:33;;;;;;;11.50;6.00;;;;;;;;;;5013376;28;20415;-61
2023/05/27 10:39:01;;;;;;;10.87;5.87;;;;;;;;;;5012793;28;20411;-61
2023/05/27 10:41:27;;;;;;;12.73;5.70;;;;;;;;;;5013511;28;20971;-61
2023/05/27 10:43:57;;;;;;;14.10;6.00;;;;;;;;;;5012659;28;20455;-61
2023/05/27 10:46:23;;;;;;;15.17;5.83;;;;;;;;;;5011677;28;20486;-62
2023/05/27 10:48:49;;;;;;;12.83;5.80;;;;;;;;;;5013522;28;20419;-61
2023/05/27 10:51:15;;;;;;;28.03;6.83;;;;;;;;;;5012819;28;20435;-61
2023/05/27 10:53:41;;;;;;;15.83;6.70;;;;;;;;;;5012923;28;20529;-61
2023/05/27 10:56:10;;;;;;;12.40;6.10;;;;;;;;;;5013599;28;20816;-62
2023/05/27 10:58:37;;;;;;;19.17;5.97;;;;;;;;;;5013595;28;20394;-61
2023/05/27 11:01:15;;;;;;;10.13;5.67;;;;;;;;;;5013268;28;20431;-61
2023/05/27 11:03:44;;;;;;;8.13;5.53;;;;;;;;;;5013576;28;20401;-61
2023/05/27 11:06:10;;;;;;;10.60;5.60;;;;;;;;;;5013627;28;20488;-61
2023/05/27 11:08:37;;;;;;;9.47;6.00;;;;;;;;;;5013169;28;20918;-61
2023/05/27 11:11:07;;;;;;;15.37;5.97;;;;;;;;;;5012113;28;20931;-61
2023/05/27 11:13:34;;;;;;;11.93;5.23;;;;;;;;;;5012782;28;20478;-61
2023/05/27 11:16:01;;;;;;;14.03;6.17;;;;;;;;;;5013101;28;20434;-61
2023/05/27 11:18:37;;;;;;;7.90;5.53;;;;;;;;;;5012924;28;20436;-61
2023/05/27 11:21:06;;;;;;;14.83;5.57;;;;;;;;;;5013189;28;20424;-61
2023/05/27 11:23:36;;;;;;;9.00;5.20;;;;;;;;;;5012276;28;20500;-61
2023/05/27 11:26:02;;;;;;;9.03;5.67;;;;;;;;;;5012809;28;20443;-62
2023/05/27 11:28:28;;;;;;;17.53;5.60;;;;;;;;;;5012338;28;20498;-61
2023/05/27 11:31:04;;;;;;;8.50;5.87;;;;;;;;;;5012087;28;20441;-61
2023/05/27 11:33:33;;;;;;;8.70;5.40;;;;;;;;;;5012335;28;20953;-61
2023/05/27 11:36:11;;;;;;;9.87;5.80;;;;;;;;;;5012186;28;20409;-61
2023/05/27 11:39:08;;;;;;;9.63;5.60;;;;;;;;;;5012306;28;20907;-61
2023/05/27 11:41:36;;;;;;;7.53;5.23;;;;;;;;;;4995598;28;20966;-61
2023/05/27 11:44:06;;;;;;;16.13;6.03;;;;;;;;;;5012365;28;20837;-61
2023/05/27 11:46:42;;;;;;;10.03;5.33;;;;;;;;;;5012738;28;20497;-61
2023/05/27 11:49:11;;;;;;;12.67;5.90;;;;;;;;;;5012775;28;20418;-61
2023/05/27 11:51:39;;;;;;;9.60;5.73;;;;;;;;;;5011096;28;20489;-61
2023/05/27 11:54:05;;;;;;;18.03;5.77;;;;;;;;;;5012238;28;20463;-61
2023/05/27 11:56:31;;;;;;;10.93;5.63;;;;;;;;;;5012245;28;20897;-61
2023/05/27 11:59:00;;;;;;;9.40;5.80;;;;;;;;;;5012328;28;20418;-61
2023/05/27 12:01:26;;;;;;;14.53;6.30;;;;;;;;;;5012034;28;20856;-61
2023/05/27 12:03:52;;;;;;;15.17;5.40;;;;;;;;;;5011879;28;20883;-61
2023/05/27 12:06:18;;;;;;;11.67;5.50;;;;;;;;;;5010533;28;20903;-61
2023/05/27 12:08:44;;;;;;;8.70;5.40;;;;;;;;;;5012031;28;20411;-61
2023/05/27 12:11:10;;;;;;;8.20;5.33;;;;;;;;;;5011936;28;20785;-61
2023/05/27 12:13:36;;;;;;;13.40;6.00;;;;;;;;;;5010674;28;20455;-61
2023/05/27 12:16:05;;;;;;;11.27;5.03;;;;;;;;;;5011677;28;20428;-61
2023/05/27 12:18:31;;;;;;;11.93;5.77;;;;;;;;;;5011751;28;20423;-61
2023/05/27 12:20:57;;;;;;;7.87;5.77;;;;;;;;;;5011896;28;20439;-61
2023/05/27 12:23:26;;;;;;;8.70;5.53;;;;;;;;;;5012174;28;20431;-61
2023/05/27 12:25:52;;;;;;;7.53;5.50;;;;;;;;;;5012083;28;20440;-61
2023/05/27 12:28:18;;;;;;;9.27;6.20;;;;;;;;;;5012259;28;20412;-61
2023/05/27 12:30:44;;;;;;;7.23;5.50;;;;;;;;;;5012086;28;20506;-62
2023/05/27 12:33:10;;;;;;;11.70;5.93;;;;;;;;;;5011917;28;20471;-62
2023/05/27 12:35:36;;;;;;;9.27;5.60;;;;;;;;;;5010622;28;20425;-61
2023/05/27 12:38:04;;;;;;;16.80;5.57;;;;;;;;;;5012080;28;20429;-62
2023/05/27 12:40:30;;;;;;;9.93;6.00;;;;;;;;;;5011708;28;20414;-61
2023/05/27 12:42:56;;;;;;;7.93;5.43;;;;;;;;;;5011792;28;20436;-62
2023/05/27 12:45:24;;;;;;;18.40;5.40;;;;;;;;;;5011934;28;20508;-61
2023/05/27 12:47:52;;;;;;;7.30;5.30;;;;;;;;;;5010850;28;20432;-61
2023/05/27 12:50:21;;;;;;;8.50;5.23;;;;;;;;;;5011963;28;20457;-62
2023/05/27 12:52:47;;;;;;;7.77;5.60;;;;;;;;;;5011405;28;20478;-61
2023/05/27 12:55:17;;;;;;;9.80;5.40;;;;;;;;;;5011672;28;20862;-61
2023/05/27 12:57:50;;;;;;;11.50;5.20;;;;;;;;;;5011594;28;20455;-62
2023/05/27 13:00:16;;;;;;;13.40;5.67;;;;;;;;;;5011765;28;20405;-62
2023/05/27 13:02:46;;;;;;;20.23;5.93;;;;;;;;;;5011666;28;20942;-61
2023/05/27 13:05:13;;;;;;;15.93;6.40;;;;;;;;;;5011658;28;20935;-62
2023/05/27 13:07:39;;;;;;;7.93;5.60;;;;;;;;;;5011486;28;20919;-62
2023/05/27 13:10:06;;;;;;;12.30;5.50;;;;;;;;;;5009931;28;20955;-61
2023/05/27 13:12:33;;;;;;;8.70;5.50;;;;;;;;;;5011115;28;20998;-62
2023/05/27 13:14:59;;;;;;;9.00;6.00;;;;;;;;;;5011630;28;20412;-62
2023/05/27 13:17:25;;;;;;;14.00;5.57;;;;;;;;;;5011367;28;20511;-62
2023/05/27 13:19:54;;;;;;;8.10;5.27;;;;;;;;;;5011304;28;20419;-62
2023/05/27 13:22:19;;;;;;;14.87;6.70;;;;;;;;;;5011658;28;20492;-62
2023/05/27 13:24:48;;;;;;;9.93;5.50;;;;;;;;;;5013787;28;20973;-62
2023/05/27 13:27:14;;;;;;;14.90;6.50;;;;;;;;;;5014755;28;20416;-62
2023/05/27 13:29:41;;;;;;;11.63;6.10;;;;;;;;;;5015232;28;20437;-62
2023/05/27 13:32:08;;;;;;;10.63;5.57;;;;;;;;;;5014628;28;20573;-62
2023/05/27 13:34:34;;;;;;;19.23;6.70;;;;;;;;;;5014934;28;20811;-62
2023/05/27 13:37:01;;;;;;;12.43;5.60;;;;;;;;;;5014485;28;20445;-61
2023/05/27 13:39:27;;;;;;;9.50;6.00;;;;;;;;;;5014756;28;20443;-62
2023/05/27 13:41:53;;;;;;;9.43;5.57;;;;;;;;;;5014753;28;20425;-61
2023/05/27 13:44:19;;;;;;;12.77;6.37;;;;;;;;;;5014022;28;20428;-62
2023/05/27 13:46:45;;;;;;;10.23;5.70;;;;;;;;;;5014582;28;20785;-61
2023/05/27 13:49:16;;;;;;;9.30;5.60;;;;;;;;;;5014871;28;20522;-61
2023/05/27 13:51:45;;;;;;;14.30;6.47;;;;;;;;;;5014741;28;20443;-61
2023/05/27 13:54:13;;;;;;;11.60;5.70;;;;;;;;;;5014404;28;20432;-61
2023/05/27 13:56:39;;;;;;;13.20;5.70;;;;;;;;;;4996427;28;20428;-60
2023/05/27 13:59:05;;;;;;;8.67;5.43;;;;;;;;;;4995078;28;20919;-60
2023/05/27 14:01:32;;;;;;;10.60;6.60;;;;;;;;;;4994975;28;20790;-61
2023/05/27 14:03:59;;;;;;;8.10;6.13;;;;;;;;;;4994726;28;20413;-61
2023/05/27 14:06:25;;;;;;;11.10;5.47;;;;;;;;;;4994464;28;20418;-61
2023/05/27 14:08:52;;;;;;;8.37;5.10;;;;;;;;;;4994676;28;20429;-61
2023/05/27 14:11:21;;;;;;;10.23;5.57;;;;;;;;;;4994822;28;20453;-60
2023/05/27 14:13:48;;;;;;;12.93;5.93;;;;;;;;;;4994874;28;20592;-61
2023/05/27 14:16:14;;;;;;;11.40;5.90;;;;;;;;;;4993260;28;20915;-60
2023/05/27 14:18:41;;;;;;;8.03;5.57;;;;;;;;;;4994608;28;20965;-61
2023/05/27 14:21:07;;;;;;;10.97;6.00;;;;;;;;;;4993927;28;20520;-61
2023/05/27 14:23:33;;;;;;;13.07;5.60;;;;;;;;;;4994410;28;20417;-62
2023/05/27 14:25:59;;;;;;;13.43;5.90;;;;;;;;;;4994614;28;20895;-61
2023/05/27 14:28:25;;;;;;;13.30;6.37;;;;;;;;;;4994014;28;20523;-61
2023/05/27 14:30:52;;;;;;;13.90;10.50;;;;;;;;;;4994489;28;20428;-61
2023/05/27 14:33:18;;;;;;;10.83;6.40;;;;;;;;;;4993838;28;20469;-61